Time;durP1;ratioP1;P1;durP2;ratioP2;P2;SDS_P1;SDS_P2;PMS_P1;PMS_P2;Temp;Humidity;BMP_temperature;BMP_pressure;BME280_temperature;BME280_humidity;BME280_pressure;Samples;Min_cycle;Max_cycle;Signal;HPM_P1;HPM_P2
2021/05/11 00:02:20;;;;;;;;;15.75;15.75;;;;;30.57;58.14;98585.34;5080426;28;8848;-76
2021/05/11 00:04:48;;;;;;;;;16.25;16.25;;;;;30.61;58.16;98588.84;5074278;28;8844;-76
2021/05/11 00:07:16;;;;;;;;;18.75;17.75;;;;;30.57;58.97;98598.97;5072123;28;8863;-77
2021/05/11 00:09:44;;;;;;;;;14.25;14.25;;;;;30.62;57.79;98612.94;5072025;28;8875;-76
2021/05/11 00:12:12;;;;;;;;;16.00;16.00;;;;;30.64;55.88;98615.25;5072417;28;8852;-76
2021/05/11 00:14:41;;;;;;;;;17.25;17.25;;;;;30.58;58.77;98609.47;5072030;28;8905;-76
2021/05/11 00:17:09;;;;;;;;;16.50;16.00;;;;;30.60;57.93;98614.53;5072269;28;9576;-76
2021/05/11 00:19:37;;;;;;;;;16.50;16.50;;;;;30.63;58.03;98619.16;5071988;28;8832;-76
2021/05/11 00:22:05;;;;;;;;;18.00;18.00;;;;;30.65;58.21;98606.69;5072024;28;8969;-76
2021/05/11 00:24:33;;;;;;;;;17.50;17.50;;;;;30.63;57.92;98611.75;5072009;28;8847;-76
2021/05/11 00:27:01;;;;;;;;;17.50;17.50;;;;;30.74;58.19;98614.38;5071973;28;8867;-76
2021/05/11 00:29:30;;;;;;;;;18.50;17.25;;;;;30.74;57.86;98614.38;5071878;28;8851;-75
2021/05/11 00:31:58;;;;;;;;;20.75;18.00;;;;;30.80;58.54;98620.94;5071838;28;8852;-76
2021/05/11 00:34:26;;;;;;;;;14.75;14.75;;;;;30.82;57.48;98621.31;5071757;28;8909;-76
2021/05/11 00:36:54;;;;;;;;;14.75;14.75;;;;;30.84;57.61;98621.66;5072059;28;8844;-76
2021/05/11 00:39:22;;;;;;;;;14.25;14.25;;;;;30.86;57.54;98634.88;5071909;28;8908;-76
2021/05/11 00:41:49;;;;;;;;;17.25;17.25;;;;;30.92;57.63;98644.94;5071715;28;8913;-76
2021/05/11 00:44:22;;;;;;;;;13.00;13.00;;;;;30.95;57.18;98641.41;5072003;28;9647;-76
2021/05/11 00:46:59;;;;;;;;;17.50;17.50;;;;;30.98;56.78;98637.88;5071680;28;8897;-76
2021/05/11 00:49:29;;;;;;;;;16.75;14.75;;;;;30.96;57.26;98629.31;5071650;28;8948;-77
2021/05/11 00:51:59;;;;;;;;;12.75;12.75;;;;;30.93;56.92;98635.59;5073672;28;8852;-76
2021/05/11 00:54:28;;;;;;;;;1.50;1.50;;;;;31.06;57.08;98663.09;5075628;28;8842;-77
2021/05/11 00:56:57;;;;;;;;;15.50;15.50;;;;;31.09;56.69;98651.38;5074073;28;8875;-76
2021/05/11 00:59:26;;;;;;;;;13.00;13.00;;;;;31.08;56.71;98647.88;5073638;28;8832;-77
2021/05/11 01:01:58;;;;;;;;;15.00;14.75;;;;;31.17;57.09;98657.56;5074370;28;8844;-75
2021/05/11 01:04:27;;;;;;;;;14.75;14.75;;;;;31.19;56.64;98672.31;5073670;28;8901;-80
2021/05/11 01:06:55;;;;;;;;;12.25;12.25;;;;;31.19;56.97;98674.25;5074230;28;8848;-79
2021/05/11 01:09:25;;;;;;;;;14.25;14.25;;;;;31.11;56.61;98662.63;5073513;28;9646;-79
2021/05/11 01:11:55;;;;;;;;;15.50;15.50;;;;;31.24;56.53;98663.66;5074024;28;8878;-80
2021/05/11 01:14:28;;;;;;;;;15.00;15.00;;;;;31.26;56.31;98671.44;5089099;28;8908;-78
2021/05/11 01:16:59;;;;;;;;;14.75;14.75;;;;;31.23;55.99;98664.84;5073998;28;8859;-77
2021/05/11 01:22:30;;;;;;;;;12.25;12.00;;;;;31.32;56.14;98676.03;5073910;28;8875;-77
2021/05/11 01:25:04;;;;;;;;;14.25;14.25;;;;;31.40;55.93;98682.16;5078635;28;8836;-82
2021/05/11 02:23:33;;;;;;;;;12.75;11.75;;;;;32.32;53.07;98715.69;5080938;28;8856;-81
2021/05/11 02:26:03;;;;;;;;;12.25;12.25;;;;;32.32;52.63;98710.22;5083608;28;8930;-79
2021/05/11 02:28:31;;;;;;;;;10.50;10.50;;;;;32.36;52.27;98714.47;5096932;28;8862;-74
2021/05/11 02:31:00;;;;;;;;;13.75;13.75;;;;;32.40;52.70;98723.38;5083630;28;8880;-83
2021/05/11 02:52:43;;;;;;;;;10.00;10.00;;;;;32.77;51.68;98707.19;5654631;22;8706;-78
2021/05/11 02:55:12;;;;;;;;;18.25;16.50;;;;;32.80;51.63;98700.88;5010246;28;8990;-77
2021/05/11 02:57:42;;;;;;;;;10.00;8.75;;;;;32.84;51.09;98699.63;5012466;28;8876;-73
2021/05/11 03:00:13;;;;;;;;;10.00;10.00;;;;;32.87;50.68;98696.06;5012404;28;8907;-80
2021/05/11 03:02:41;;;;;;;;;9.20;9.20;;;;;32.91;51.17;98699.50;5010748;28;8869;-79
2021/05/11 03:05:10;;;;;;;;;12.25;12.25;;;;;32.95;51.18;98700.22;5011957;28;8879;-76
2021/05/11 03:07:39;;;;;;;;;11.75;11.75;;;;;32.97;50.97;98708.78;5011771;28;8863;-80
2021/05/11 03:10:10;;;;;;;;;10.40;10.40;;;;;33.00;50.00;98696.22;5012362;28;9651;-72
2021/05/11 03:12:38;;;;;;;;;9.40;9.40;;;;;33.00;50.84;98693.50;5011810;28;8848;-81
2021/05/11 03:15:07;;;;;;;;;10.40;10.40;;;;;33.06;50.73;98689.09;5011991;28;8890;-77
2021/05/11 03:17:36;;;;;;;;;10.80;10.80;;;;;33.08;50.79;98684.75;5012606;28;8860;-79
2021/05/11 03:20:06;;;;;;;;;6.80;6.80;;;;;33.14;49.13;98695.97;5012057;28;8876;-80
2021/05/11 03:22:34;;;;;;;;;6.20;6.20;;;;;33.17;49.21;98694.38;4991045;28;9010;-76
2021/05/11 03:25:03;;;;;;;;;6.20;6.20;;;;;33.20;49.91;98691.56;5001388;28;8926;-77
2021/05/11 03:27:32;;;;;;;;;7.20;7.20;;;;;33.25;49.32;98682.88;5000818;28;8854;-74
2021/05/11 03:30:00;;;;;;;;;8.40;8.40;;;;;33.34;50.13;98690.53;4997269;28;8894;-73
2021/05/11 03:32:28;;;;;;;;;8.60;8.60;;;;;33.39;49.31;98687.31;5004112;28;8983;-72
2021/05/11 03:34:56;;;;;;;;;7.80;7.80;;;;;33.42;49.90;98689.22;5010229;28;8852;-80
2021/05/11 03:37:25;;;;;;;;;6.80;6.80;;;;;33.50;49.51;98685.13;5010973;28;8918;-74
2021/05/11 03:39:53;;;;;;;;;10.40;9.80;;;;;33.58;49.07;98686.53;5008765;28;8840;-77
2021/05/11 03:42:29;;;;;;;;;10.20;10.20;;;;;33.60;48.32;98675.94;5001541;28;8878;-74
2021/05/11 03:45:01;;;;;;;;;10.40;10.40;;;;;33.69;48.82;98669.91;5001035;28;8848;-76
2021/05/11 03:47:37;;;;;;;;;8.80;8.80;;;;;33.76;49.25;98664.28;5003595;28;8856;-73
2021/05/11 03:50:06;;;;;;;;;11.60;9.80;;;;;33.81;48.70;98669.25;4997184;28;8885;-75
2021/05/11 03:52:34;;;;;;;;;9.00;9.00;;;;;33.89;49.40;98667.91;4997166;28;8939;-74
2021/05/11 03:55:03;;;;;;;;;9.00;9.00;;;;;33.94;48.26;98672.88;4998491;28;8866;-73
2021/05/11 03:57:32;;;;;;;;;7.60;7.60;;;;;33.93;48.00;98667.81;4996405;28;8964;-74
2021/05/11 04:00:01;;;;;;;;;11.20;11.20;;;;;33.94;49.06;98669.34;5003934;28;8953;-76
2021/05/11 04:02:30;;;;;;;;;10.00;9.20;;;;;33.98;48.53;98673.56;5004671;28;8868;-75
2021/05/11 04:04:58;;;;;;;;;8.00;8.00;;;;;34.01;48.71;98666.47;4999927;28;9600;-75
2021/05/11 04:07:27;;;;;;;;;9.20;9.20;;;;;34.05;47.48;98669.88;5010087;28;8914;-75
2021/05/11 04:09:58;;;;;;;;;8.20;8.20;;;;;34.17;47.47;98665.72;5010001;28;8964;-75
2021/05/11 04:17:56;;;;;;;;;9.40;9.40;;;;;34.46;46.79;98660.34;5010597;28;8856;-76
2021/05/11 04:20:25;;;;;;;;;9.00;9.00;;;;;34.49;46.79;98643.81;5009370;28;8880;-77
2021/05/11 04:22:53;;;;;;;;;11.20;11.20;;;;;34.60;47.50;98644.31;5000092;28;8992;-76
2021/05/11 04:25:23;;;;;;;;;9.00;9.00;;;;;34.72;47.11;98645.59;4996602;28;9627;-79
2021/05/11 04:27:51;;;;;;;;;9.00;9.00;;;;;34.84;47.02;98646.88;4999784;28;8985;-79
2021/05/11 04:30:20;;;;;;;;;9.60;8.40;;;;;34.94;46.42;98638.38;4999940;28;8863;-76
2021/05/11 04:32:49;;;;;;;;;8.60;8.60;;;;;35.08;46.19;98642.69;5001332;28;8909;-81
2021/05/11 04:35:18;;;;;;;;;8.40;8.40;;;;;35.10;45.07;98625.81;5000369;28;8871;-77
2021/05/11 04:37:47;;;;;;;;;7.00;7.00;;;;;35.21;45.54;98635.25;5005393;28;8868;-84
2021/05/11 04:40:16;;;;;;;;;7.00;7.00;;;;;35.19;45.01;98623.94;5005312;28;8875;-77
2021/05/11 04:42:45;;;;;;;;;6.80;6.80;;;;;35.30;44.87;98632.66;5006875;28;8836;-83
2021/05/11 04:45:19;;;;;;;;;8.60;8.60;;;;;35.34;44.51;98626.31;5010969;28;9630;-81
2021/05/11 04:47:50;;;;;;;;;9.00;9.00;;;;;35.40;45.22;98632.78;5003321;28;8866;-82
2021/05/11 04:50:24;;;;;;;;;6.60;6.60;;;;;35.49;46.09;98636.44;5002868;28;8971;-87
2021/05/11 04:52:56;;;;;;;;;8.00;8.00;;;;;35.53;44.51;98619.84;5000352;28;8917;-79
2021/05/11 04:55:27;;;;;;;;;8.40;8.20;;;;;35.68;45.21;98622.94;5003886;28;8859;-83
2021/05/11 04:57:56;;;;;;;;;9.80;9.80;;;;;35.75;42.48;98619.97;5004104;28;8950;-85
2021/05/11 05:00:25;;;;;;;;;6.40;6.40;;;;;35.81;42.83;98615.50;5005297;28;8854;-81
2021/05/11 05:03:00;;;;;;;;;6.40;6.40;;;;;35.88;42.79;98609.81;5001251;28;8847;-78
2021/05/11 05:05:29;;;;;;;;;7.20;7.20;;;;;35.93;44.21;98603.75;4997987;28;8840;-80
2021/05/11 05:07:58;;;;;;;;;10.20;10.20;;;;;36.03;43.91;98599.91;4998693;28;8875;-75
2021/05/11 05:10:26;;;;;;;;;7.80;7.80;;;;;36.09;43.86;98600.88;4997703;28;8844;-75
2021/05/11 05:12:55;;;;;;;;;7.80;7.80;;;;;36.12;42.22;98599.22;4999396;28;8860;-74
2021/05/11 05:15:23;;;;;;;;;9.00;9.00;;;;;36.13;43.50;98595.28;5000371;28;8848;-78
2021/05/11 05:17:52;;;;;;;;;9.60;9.60;;;;;36.05;42.97;98599.47;5002456;28;8848;-83
2021/05/11 05:20:21;;;;;;;;;11.20;11.20;;;;;35.99;43.08;98593.00;5000942;28;8894;-80
2021/05/11 05:22:50;;;;;;;;;7.00;7.00;;;;;35.89;43.35;98584.66;4993978;28;8882;-86
2021/05/11 05:25:26;;;;;;;;;10.20;10.20;;;;;35.85;45.21;98578.50;4994580;28;8846;-79
2021/05/11 05:30:24;;;;;;;;;9.40;9.40;;;;;35.97;43.91;98565.97;5005447;28;8856;-78
2021/05/11 05:32:57;;;;;;;;;5.60;5.60;;;;;36.00;44.34;98562.34;5003620;28;8860;-79
2021/05/11 05:35:30;;;;;;;;;11.00;11.00;;;;;36.12;44.54;98555.28;4999205;28;8874;-78
2021/05/11 05:38:00;;;;;;;;;17.20;17.20;;;;;36.18;43.83;98556.28;5001455;28;8868;-75
2021/05/11 05:40:29;;;;;;;;;7.80;7.80;;;;;36.10;42.96;98533.78;5003074;28;8946;-77
2021/05/11 05:42:57;;;;;;;;;9.60;9.60;;;;;36.19;43.51;98552.31;5001582;28;8915;-75
2021/05/11 05:45:26;;;;;;;;;10.40;10.40;;;;;36.14;42.48;98534.41;4997169;28;8843;-79
2021/05/11 05:47:55;;;;;;;;;7.00;7.00;;;;;36.19;41.85;98531.09;4998467;28;8860;-77
2021/05/11 05:50:27;;;;;;;;;6.60;6.60;;;;;36.25;43.07;98523.84;5004328;28;8863;-79
2021/05/11 05:53:11;;;;;;;;;8.00;8.00;;;;;36.38;43.10;98517.56;5000313;28;8858;-76
2021/05/11 05:55:42;;;;;;;;;6.60;6.60;;;;;36.50;41.21;98503.72;5007711;28;8934;-78
2021/05/11 05:58:10;;;;;;;;;5.80;5.80;;;;;36.62;43.29;98504.88;5018933;28;8868;-78
2021/05/11 06:00:40;;;;;;;;;4.80;4.80;;;;;36.72;42.06;98492.72;5023293;28;8910;-78
2021/05/11 06:03:31;;;;;;;;;5.00;5.00;;;;;36.86;40.32;98484.00;5016198;28;8840;-80
2021/05/11 06:05:58;;;;;;;;;6.00;6.00;;;;;36.97;39.38;98483.59;5021668;28;8862;-78
2021/05/11 06:08:28;;;;;;;;;6.40;6.40;;;;;37.11;38.41;98479.53;5023736;28;8823;-76
2021/05/11 06:19:05;;;;;;;;;4.80;4.80;;;;;37.40;38.32;98444.19;5011304;28;8813;-78
2021/05/11 06:21:33;;;;;;;;;7.20;7.20;;;;;37.57;39.59;98446.69;5011750;28;8846;-77
2021/05/11 06:24:05;;;;;;;;;7.00;7.00;;;;;37.65;39.89;98442.41;5013559;28;8868;-78
2021/05/11 06:26:34;;;;;;;;;6.60;6.60;;;;;37.76;39.52;98435.25;5010260;28;9586;-80
2021/05/11 06:29:03;;;;;;;;;7.00;7.00;;;;;37.92;39.53;98431.44;5013950;28;8871;-81
2021/05/11 06:31:32;;;;;;;;;6.00;6.00;;;;;38.02;39.35;98430.22;5017022;28;8872;-81
2021/05/11 06:34:02;;;;;;;;;7.20;7.20;;;;;38.10;39.84;98419.66;5019676;28;8828;-78
2021/05/11 06:36:30;;;;;;;;;8.00;8.00;;;;;38.09;40.31;98405.09;5021124;28;8848;-76
2021/05/11 06:39:02;;;;;;;;;6.80;6.80;;;;;38.28;38.60;98414.16;5019782;28;9644;-83
2021/05/11 06:41:31;;;;;;;;;9.40;9.40;;;;;38.38;39.75;98409.38;5013621;28;8921;-78
2021/05/11 06:44:06;;;;;;;;;7.00;7.00;;;;;38.43;38.58;98411.50;5015299;28;8869;-81
2021/05/11 06:54:13;;;;;;;;;6.40;6.40;;;;;38.44;37.69;98389.00;5013136;28;8852;-77
2021/05/11 06:56:46;;;;;;;;;7.00;7.00;;;;;38.54;37.55;98386.22;5012389;28;8875;-78
2021/05/11 06:59:15;;;;;;;;;5.00;5.00;;;;;38.59;37.56;98380.88;5012177;28;8930;-78
2021/05/11 07:01:44;;;;;;;;;5.40;5.40;;;;;38.66;37.69;98369.50;5012642;28;8840;-78
2021/05/11 07:04:12;;;;;;;;;6.60;6.60;;;;;38.69;37.93;98382.38;4995379;28;8856;-78
2021/05/11 07:06:43;;;;;;;;;6.60;6.60;;;;;38.64;39.66;98374.72;5012903;28;8828;-78
2021/05/11 07:09:19;;;;;;;;;5.00;5.00;;;;;38.44;37.92;98361.44;4995231;28;8878;-77
2021/05/11 07:14:17;;;;;;;;;6.00;6.00;;;;;38.23;37.15;98373.44;5013608;28;9294;-78
2021/05/11 07:16:46;;;;;;;;;5.00;5.00;;;;;38.17;36.66;98369.78;5012184;28;8903;-78
2021/05/11 07:19:16;;;;;;;;;6.80;6.80;;;;;38.13;37.33;98364.44;5011632;28;8844;-78
2021/05/11 07:21:45;;;;;;;;;7.80;7.80;;;;;38.09;37.46;98363.78;5012433;28;8864;-78
2021/05/11 07:24:13;;;;;;;;;6.00;6.00;;;;;38.08;37.08;98358.75;5012200;28;8863;-79
2021/05/11 07:32:04;;;;;;;;;6.20;6.20;;;;;38.33;38.09;98357.66;5011821;28;8860;-79
2021/05/11 07:34:33;;;;;;;;;6.60;6.60;;;;;38.37;38.29;98353.50;5011984;28;8990;-78
2021/05/11 07:37:01;;;;;;;;;4.20;4.20;;;;;38.48;36.42;98350.25;5012013;28;8878;-79
2021/05/11 07:39:30;;;;;;;;;6.80;6.80;;;;;38.54;37.58;98345.66;5011238;28;8983;-78
2021/05/11 07:42:00;;;;;;;;;5.40;5.40;;;;;38.57;36.90;98350.22;5012104;28;8852;-78
2021/05/11 07:44:30;;;;;;;;;7.00;7.00;;;;;38.62;37.53;98335.84;5011742;28;8848;-78
2021/05/11 08:15:59;;;;;;;;;7.20;7.20;;;;;38.81;36.90;98260.06;5011576;28;8840;-76
2021/05/11 08:29:12;;;;;;;;;6.20;6.20;;;;;38.83;36.10;98254.84;5017288;28;8880;-79
2021/05/11 08:31:41;;;;;;;;;6.60;6.40;;;;;38.90;35.88;98247.47;5033471;28;8915;-79
2021/05/11 08:34:09;;;;;;;;;5.80;5.80;;;;;38.93;38.42;98249.28;5013155;28;8852;-81
2021/05/11 08:36:38;;;;;;;;;7.20;7.20;;;;;38.92;36.76;98240.25;5011918;28;9728;-82
2021/05/11 08:39:07;;;;;;;;;6.80;6.80;;;;;38.94;35.82;98228.75;5014285;28;8852;-75
2021/05/11 08:41:35;;;;;;;;;5.00;5.00;;;;;38.94;35.31;98221.22;5013353;28;9620;-81
2021/05/11 08:44:07;;;;;;;;;5.60;5.60;;;;;38.91;35.68;98221.41;5014799;28;9682;-82
2021/05/11 08:46:37;;;;;;;;;7.40;7.40;;;;;38.94;37.31;98224.00;5011170;28;8860;-81
2021/05/11 08:49:07;;;;;;;;;6.00;6.00;;;;;38.97;35.84;98225.81;5018616;28;8856;-81
2021/05/11 08:51:47;;;;;;;;;6.20;6.20;;;;;39.00;35.83;98219.34;5015788;28;8868;-76
2021/05/11 08:54:26;;;;;;;;;6.20;6.20;;;;;39.04;35.30;98213.66;5010756;28;8860;-77
2021/05/11 10:46:59;;;;;;;;;9.40;8.20;;;;;37.79;39.68;98213.31;5025319;28;8833;-81
2021/05/11 10:49:40;;;;;;;;;8.20;8.20;;;;;37.72;37.68;98219.16;5025529;28;8954;-81
2021/05/11 10:52:41;;;;;;;;;9.20;9.20;;;;;37.69;38.36;98231.13;5024363;28;9615;-80
2021/05/11 10:55:16;;;;;;;;;6.40;6.40;;;;;37.62;38.31;98237.69;5023016;28;8875;-81
2021/05/11 11:03:27;;;;;;;;;12.00;12.00;;;;;37.43;38.70;98241.66;5021956;28;8845;-80
2021/05/11 11:06:02;;;;;;;;;10.40;9.80;;;;;37.36;39.80;98242.75;5021898;28;8930;-80
2021/05/11 11:08:43;;;;;;;;;12.00;11.60;;;;;37.31;38.98;98254.34;5026110;28;8856;-80
2021/05/11 11:11:17;;;;;;;;;10.00;10.00;;;;;37.16;38.69;98256.16;5028611;28;8852;-80
2021/05/11 11:13:53;;;;;;;;;9.20;9.20;;;;;37.12;39.50;98269.28;5020796;28;8926;-80
2021/05/11 11:16:42;;;;;;;;;11.80;11.80;;;;;37.08;39.71;98274.94;5020435;28;8999;-80
2021/05/11 11:19:12;;;;;;;;;11.60;10.40;;;;;37.01;39.89;98278.00;5020448;28;8841;-80
2021/05/11 11:24:28;;;;;;;;;7.80;7.80;;;;;36.93;39.49;98274.00;5016862;28;8836;-80
2021/05/11 11:26:58;;;;;;;;;9.20;9.20;;;;;36.87;39.95;98286.81;5017483;28;8848;-80
2021/05/11 11:29:27;;;;;;;;;10.00;10.00;;;;;36.83;40.16;98288.94;5019755;28;8844;-80
2021/05/11 11:31:57;;;;;;;;;8.60;8.60;;;;;36.77;40.41;98293.50;5017572;28;8840;-80
2021/05/11 11:34:35;;;;;;;;;11.20;11.20;;;;;36.69;40.18;98295.00;5016648;28;8943;-80
2021/05/11 11:37:11;;;;;;;;;8.60;8.20;;;;;36.59;40.04;98296.94;5015803;28;8872;-80
2021/05/11 11:39:43;;;;;;;;;10.00;10.00;;;;;36.53;40.04;98307.75;5014846;28;8844;-80
2021/05/11 11:42:21;;;;;;;;;11.80;11.20;;;;;36.43;40.54;98303.44;5014853;28;8844;-80
2021/05/11 11:44:55;;;;;;;;;11.80;11.80;;;;;36.40;40.25;98311.84;5016528;28;8848;-80
2021/05/11 11:47:24;;;;;;;;;10.00;10.00;;;;;36.35;40.67;98317.94;5018806;28;8864;-80
2021/05/11 11:49:59;;;;;;;;;9.40;9.40;;;;;36.30;41.01;98330.25;5017736;28;8840;-80
2021/05/11 11:52:34;;;;;;;;;12.60;11.40;;;;;36.25;40.82;98328.84;5013298;28;8841;-79
2021/05/11 11:57:57;;;;;;;;;10.00;10.00;;;;;36.09;41.52;98329.03;5012651;28;9646;-80
2021/05/11 12:00:27;;;;;;;;;12.80;12.80;;;;;36.05;41.74;98338.63;5017814;28;8852;-80
2021/05/11 12:03:11;;;;;;;;;13.40;12.60;;;;;35.99;41.81;98337.66;5014541;28;8847;-80
2021/05/11 12:05:44;;;;;;;;;15.20;15.20;;;;;35.92;41.63;98338.69;5014081;28;9667;-80
2021/05/11 12:08:21;;;;;;;;;12.40;12.40;;;;;35.82;41.97;98340.59;5018286;28;9565;-80
2021/05/11 12:11:00;;;;;;;;;10.60;10.60;;;;;35.80;41.77;98350.50;5002077;28;8848;-79
2021/05/11 12:13:35;;;;;;;;;9.80;9.80;;;;;35.73;41.76;98354.22;5015184;28;8875;-79
2021/05/11 12:16:30;;;;;;;;;9.80;9.40;;;;;35.68;42.52;98357.53;5013297;28;8871;-79
2021/05/11 12:21:33;;;;;;;;;13.00;13.00;;;;;35.64;42.01;98379.59;5016375;28;8851;-81
2021/05/11 12:24:04;;;;;;;;;8.80;8.80;;;;;35.62;41.38;98376.53;5015164;28;8919;-80
2021/05/11 12:26:33;;;;;;;;;10.20;10.20;;;;;35.60;41.27;98383.69;5009034;28;8830;-81
2021/05/11 12:29:11;;;;;;;;;16.40;16.00;;;;;35.56;41.74;98383.81;5014647;28;8833;-80
2021/05/11 12:31:45;;;;;;;;;15.60;15.60;;;;;35.48;42.01;98387.22;5012988;28;8852;-80
2021/05/11 12:34:22;;;;;;;;;15.00;14.60;;;;;35.43;42.77;98387.78;5012936;28;8876;-80
2021/05/11 12:36:57;;;;;;;;;13.20;13.20;;;;;35.41;42.37;98390.22;5014179;28;8852;-80
2021/05/11 12:39:35;;;;;;;;;11.20;11.20;;;;;35.39;42.26;98387.13;5016643;28;8848;-80
2021/05/11 12:42:20;;;;;;;;;14.40;13.80;;;;;35.37;42.47;98387.59;5015211;28;8883;-80
2021/05/11 12:45:06;;;;;;;;;10.00;10.00;;;;;35.34;42.67;98395.94;5018793;28;8870;-80
2021/05/11 12:47:49;;;;;;;;;11.00;11.00;;;;;35.32;42.74;98390.88;5021159;28;8845;-81
2021/05/11 12:50:21;;;;;;;;;12.40;10.00;;;;;35.31;42.41;98403.81;5027127;28;8836;-80
2021/05/11 12:52:56;;;;;;;;;11.40;11.40;;;;;35.30;41.85;98416.00;5020376;28;8868;-79
2021/05/11 12:56:06;;;;;;;;;16.60;16.60;;;;;35.29;43.17;98419.94;4999929;28;8852;-80
2021/05/11 13:01:33;;;;;;;;;13.40;13.40;;;;;35.23;43.30;98409.94;5023320;28;8906;-79
2021/05/11 13:36:18;;;;;;;;;23.00;21.40;;;;;34.71;44.66;98413.88;5015752;28;9581;-80
2021/05/11 13:38:47;;;;;;;;;16.80;16.80;;;;;34.62;44.91;98406.31;5015534;28;8954;-80
2021/05/11 13:41:16;;;;;;;;;22.40;21.20;;;;;34.53;45.73;98394.47;5015249;28;8958;-80
2021/05/11 13:43:44;;;;;;;;;18.60;18.60;;;;;34.59;45.46;98414.63;5015720;28;8864;-80
2021/05/11 13:46:14;;;;;;;;;18.20;18.20;;;;;34.52;45.10;98415.63;5016454;28;8840;-80
2021/05/11 13:48:47;;;;;;;;;18.00;18.00;;;;;34.52;45.51;98418.34;5016278;28;8929;-80
2021/05/11 13:51:18;;;;;;;;;15.00;15.00;;;;;34.51;45.24;98413.31;5017441;28;8843;-80
2021/05/11 13:53:53;;;;;;;;;15.40;15.40;;;;;34.48;44.87;98417.69;4997609;28;8860;-80
2021/05/11 13:56:34;;;;;;;;;13.80;13.80;;;;;34.47;44.61;98427.09;5015031;28;8836;-80
2021/05/11 14:04:26;;;;;;;;;19.20;19.20;;;;;34.42;45.52;98441.34;5015182;28;8836;-80
2021/05/11 14:06:54;;;;;;;;;16.20;16.20;;;;;34.35;45.41;98434.09;5015452;28;8875;-80
2021/05/11 14:09:25;;;;;;;;;19.40;19.40;;;;;34.37;45.59;98436.38;5015067;28;8868;-80
2021/05/11 14:11:53;;;;;;;;;17.60;17.60;;;;;34.36;45.63;98448.53;5015118;28;8856;-80
2021/05/11 14:14:24;;;;;;;;;17.80;17.80;;;;;34.30;45.16;98451.00;5015216;28;8887;-80
2021/05/11 14:16:53;;;;;;;;;16.60;16.60;;;;;34.30;44.83;98448.28;5014855;28;8840;-80
2021/05/11 14:19:31;;;;;;;;;19.60;19.00;;;;;34.28;45.24;98450.69;5014747;28;8836;-79
2021/05/11 14:22:01;;;;;;;;;14.60;14.60;;;;;34.27;44.86;98449.16;5014705;28;8847;-80
2021/05/11 14:24:30;;;;;;;;;17.80;17.80;;;;;34.25;45.51;98448.81;5014664;28;9573;-79
2021/05/11 14:26:58;;;;;;;;;20.20;19.20;;;;;34.22;45.55;98440.69;5014339;28;8828;-79
2021/05/11 14:29:27;;;;;;;;;19.25;19.25;;;;;34.22;45.76;98452.41;5014318;28;8852;-80
2021/05/11 14:31:56;;;;;;;;;23.50;23.00;;;;;34.21;46.50;98452.84;5013091;28;9607;-80
2021/05/11 14:34:25;;;;;;;;;24.75;21.50;;;;;34.20;45.77;98446.59;5014132;28;8863;-79
2021/05/11 14:36:54;;;;;;;;;22.75;22.75;;;;;34.18;46.02;98443.53;5014109;28;8868;-79
2021/05/11 14:39:25;;;;;;;;;19.60;19.40;;;;;34.18;46.04;98456.44;5014491;28;8918;-80
2021/05/11 14:41:57;;;;;;;;;18.60;18.60;;;;;34.16;46.21;98461.59;5014131;28;8933;-79
2021/05/11 14:44:28;;;;;;;;;19.00;18.75;;;;;34.12;45.99;98464.41;5014352;28;8848;-79
2021/05/11 14:46:57;;;;;;;;;20.75;20.75;;;;;34.08;46.16;98463.75;5014065;28;8934;-80
2021/05/11 14:49:26;;;;;;;;;25.00;23.75;;;;;34.01;46.32;98458.44;5013946;28;8914;-80
2021/05/11 14:51:55;;;;;;;;;23.75;23.75;;;;;34.01;47.01;98478.38;5015263;28;8832;-79
2021/05/11 14:54:27;;;;;;;;;21.75;21.75;;;;;34.00;46.84;98484.28;5016994;28;8871;-79
2021/05/11 14:56:56;;;;;;;;;27.75;26.25;;;;;33.97;47.43;98485.13;5016003;28;8840;-80
2021/05/11 14:59:25;;;;;;;;;25.75;23.75;;;;;33.96;47.14;98492.59;5017002;28;9627;-79
2021/05/11 15:01:54;;;;;;;;;21.25;21.25;;;;;33.92;47.55;98500.13;4998977;28;8852;-79
2021/05/11 15:04:23;;;;;;;;;23.25;23.25;;;;;33.92;47.18;98504.81;5014438;28;8820;-79
2021/05/11 15:06:52;;;;;;;;;23.25;23.25;;;;;33.86;46.84;98493.63;5013630;28;8840;-79
2021/05/11 15:09:22;;;;;;;;;21.50;21.50;;;;;33.88;46.78;98490.44;5013494;28;8903;-79
2021/05/11 15:11:51;;;;;;;;;23.75;23.75;;;;;33.86;47.45;98492.84;5013261;28;8867;-80
2021/05/11 15:14:19;;;;;;;;;19.75;19.75;;;;;33.80;48.09;98483.63;5013550;28;8855;-79
2021/05/11 15:16:57;;;;;;;;;19.75;19.75;;;;;33.79;47.74;98487.56;5013667;28;8962;-79
2021/05/11 15:19:26;;;;;;;;;21.50;21.50;;;;;33.77;47.59;98484.47;5013376;28;8864;-80
2021/05/11 15:21:54;;;;;;;;;21.75;21.75;;;;;33.74;47.79;98483.38;5013312;28;8882;-80
2021/05/11 15:24:23;;;;;;;;;18.75;18.75;;;;;33.67;47.19;98475.34;5013526;28;8898;-80
2021/05/11 15:26:54;;;;;;;;;20.25;20.25;;;;;33.73;47.36;98487.31;5013227;28;8995;-79
2021/05/11 15:29:24;;;;;;;;;20.25;19.50;;;;;33.74;47.39;98485.34;5013306;28;8876;-79
2021/05/11 15:31:55;;;;;;;;;17.80;17.80;;;;;33.74;47.24;98488.06;5013076;28;8926;-79
2021/05/11 15:34:25;;;;;;;;;19.75;19.75;;;;;33.74;47.78;98491.56;5013172;28;8833;-80
2021/05/11 15:36:59;;;;;;;;;18.20;17.80;;;;;33.72;48.26;98500.22;5013087;28;8943;-79
2021/05/11 15:39:28;;;;;;;;;16.20;16.20;;;;;33.67;48.34;98492.50;5013016;28;8847;-79
2021/05/11 15:41:56;;;;;;;;;23.50;22.00;;;;;33.63;48.44;98491.06;5012970;28;8851;-80
2021/05/11 15:44:25;;;;;;;;;17.40;16.80;;;;;33.61;47.68;98494.22;5013186;28;8844;-80
2021/05/11 15:46:54;;;;;;;;;20.50;19.75;;;;;33.58;48.21;98480.63;5012850;28;8848;-80
2021/05/11 15:49:22;;;;;;;;;15.00;15.00;;;;;33.52;48.07;98471.41;5012945;28;8929;-79
2021/05/11 15:51:51;;;;;;;;;17.00;17.00;;;;;33.57;48.50;98482.59;5012830;28;8851;-79
2021/05/11 15:54:20;;;;;;;;;18.00;18.00;;;;;33.56;47.88;98488.50;5012759;28;8852;-80
2021/05/11 15:56:49;;;;;;;;;15.60;15.60;;;;;33.56;48.43;98488.50;5012780;28;8837;-80
2021/05/11 15:59:18;;;;;;;;;16.20;16.20;;;;;33.53;48.59;98484.66;5012911;28;8840;-80
2021/05/11 16:01:47;;;;;;;;;12.40;12.40;;;;;33.53;48.48;98479.19;4995407;28;8844;-80
2021/05/11 16:04:16;;;;;;;;;14.75;14.75;;;;;33.52;48.54;98472.16;5012823;28;8836;-79
2021/05/11 16:06:44;;;;;;;;;16.75;16.75;;;;;33.49;48.20;98481.22;5012880;28;8860;-80
2021/05/11 16:09:14;;;;;;;;;15.50;15.50;;;;;33.47;48.25;98472.69;5012594;28;8966;-79
2021/05/11 16:12:02;;;;;;;;;14.20;13.80;;;;;33.47;48.44;98477.38;5012787;28;9675;-79
2021/05/11 16:14:31;;;;;;;;;14.60;14.60;;;;;33.43;48.67;98466.53;5012506;28;8836;-79
2021/05/11 16:17:00;;;;;;;;;15.60;14.80;;;;;33.42;48.16;98478.66;5012540;28;8836;-79
2021/05/11 16:19:29;;;;;;;;;15.00;15.00;;;;;33.40;48.57;98470.13;5012455;28;8844;-79
2021/05/11 16:21:58;;;;;;;;;12.60;12.60;;;;;33.38;48.82;98469.78;5011524;28;8840;-79
2021/05/11 16:24:26;;;;;;;;;16.60;16.60;;;;;33.35;48.73;98470.63;5012636;28;8903;-79
2021/05/11 16:26:55;;;;;;;;;12.00;12.00;;;;;33.30;48.94;98465.66;5012250;28;8852;-79
2021/05/11 16:29:23;;;;;;;;;13.20;13.20;;;;;33.23;48.79;98463.06;5012793;28;8851;-79
2021/05/11 16:31:52;;;;;;;;;14.00;14.00;;;;;33.23;49.00;98463.06;5012374;28;8867;-79
2021/05/11 16:34:21;;;;;;;;;14.50;14.50;;;;;33.21;48.82;98473.66;5012276;28;8922;-79
2021/05/11 16:36:50;;;;;;;;;15.20;15.00;;;;;33.21;48.87;98481.84;5012328;28;8840;-79
2021/05/11 16:39:20;;;;;;;;;14.00;14.00;;;;;33.20;49.20;98493.97;5012165;28;8840;-79
2021/05/11 16:41:49;;;;;;;;;14.20;14.20;;;;;33.19;49.13;98501.41;5012279;28;9585;-79
2021/05/11 16:44:17;;;;;;;;;13.00;13.00;;;;;33.17;49.14;98494.81;4995740;28;8844;-79
2021/05/11 16:46:46;;;;;;;;;12.80;12.80;;;;;33.16;49.73;98499.53;5012336;28;8852;-80
2021/05/11 16:49:15;;;;;;;;;13.00;13.00;;;;;33.05;49.90;98486.09;5012411;28;9589;-80
2021/05/11 16:51:44;;;;;;;;;15.40;15.40;;;;;33.06;49.25;98495.06;5013322;28;8840;-79
2021/05/11 16:54:13;;;;;;;;;16.25;15.75;;;;;33.02;48.83;98497.09;5012062;28;8844;-79
2021/05/11 16:56:41;;;;;;;;;12.60;12.60;;;;;32.97;49.20;98489.41;5012319;28;8844;-80
2021/05/11 16:59:10;;;;;;;;;13.60;13.60;;;;;32.97;49.02;98486.66;5004009;28;8840;-80
2021/05/11 17:01:39;;;;;;;;;13.40;13.40;;;;;32.97;49.70;98494.84;5012015;28;8844;-80
2021/05/11 17:04:08;;;;;;;;;14.00;13.40;;;;;32.95;49.10;98492.53;4994974;28;8828;-80